<?xml version="1.0" encoding="UTF-8" standalone="no" ?>
<gpx xmlns="http://www.topografix.com/GPX/1/1" xmlns:xsi="http://www.w3.org/2001/XMLSchema-instance" xsi:schemaLocation="http://www.topografix.com/GPX/1/1 http://www.topografix.com/GPX/1/1/gpx.xsd" version="1.1" creator="VisuGPX - https://www.visugpx.com">
  <metadata>
    <name>Saverne 31/12/16</name>
    <desc><![CDATA[Sortie VTT pour vttiste confirmé.]]></desc>
  </metadata>
  <trk>
    <name><![CDATA[OR-6879839--Saverne:30/12/2016]]></name>
    <trkseg>
      <trkpt lat="48.73898" lon="7.36099">
        <ele>215</ele>
        <time>2016-12-27T11:41:31Z</time>
      </trkpt>
      <trkpt lat="48.73931" lon="7.36018">
        <ele>215</ele>
        <time>2016-12-27T11:43:31Z</time>
      </trkpt>
      <trkpt lat="48.74012" lon="7.35911">
        <ele>207</ele>
        <time>2016-12-27T11:45:31Z</time>
      </trkpt>
      <trkpt lat="48.74067" lon="7.3584">
        <ele>199</ele>
        <time>2016-12-27T11:47:31Z</time>
      </trkpt>
      <trkpt lat="48.7407" lon="7.35799">
        <ele>199</ele>
        <time>2016-12-27T11:49:31Z</time>
      </trkpt>
      <trkpt lat="48.74113" lon="7.35779">
        <ele>196</ele>
        <time>2016-12-27T11:51:31Z</time>
      </trkpt>
      <trkpt lat="48.74107" lon="7.35647">
        <ele>195</ele>
        <time>2016-12-27T11:53:31Z</time>
      </trkpt>
      <trkpt lat="48.74111" lon="7.35511">
        <ele>192</ele>
        <time>2016-12-27T11:55:31Z</time>
      </trkpt>
      <trkpt lat="48.74134" lon="7.35512">
        <ele>190</ele>
        <time>2016-12-27T11:57:31Z</time>
      </trkpt>
      <trkpt lat="48.74125" lon="7.35172">
        <ele>193</ele>
        <time>2016-12-27T11:59:31Z</time>
      </trkpt>
      <trkpt lat="48.74149" lon="7.3514">
        <ele>189</ele>
        <time>2016-12-27T12:01:31Z</time>
      </trkpt>
      <trkpt lat="48.74189" lon="7.35142">
        <ele>188</ele>
        <time>2016-12-27T12:03:31Z</time>
      </trkpt>
      <trkpt lat="48.74223" lon="7.35132">
        <ele>189</ele>
        <time>2016-12-27T12:05:31Z</time>
      </trkpt>
      <trkpt lat="48.74158" lon="7.35009">
        <ele>186</ele>
        <time>2016-12-27T12:07:31Z</time>
      </trkpt>
      <trkpt lat="48.74085" lon="7.34893">
        <ele>188</ele>
        <time>2016-12-27T12:09:31Z</time>
      </trkpt>
      <trkpt lat="48.74063" lon="7.34849">
        <ele>189</ele>
        <time>2016-12-27T12:11:31Z</time>
      </trkpt>
      <trkpt lat="48.74085" lon="7.34786">
        <ele>194</ele>
        <time>2016-12-27T12:13:31Z</time>
      </trkpt>
      <trkpt lat="48.74023" lon="7.34748">
        <ele>194</ele>
        <time>2016-12-27T12:15:31Z</time>
      </trkpt>
      <trkpt lat="48.73998" lon="7.34736">
        <ele>194</ele>
        <time>2016-12-27T12:17:31Z</time>
      </trkpt>
      <trkpt lat="48.73976" lon="7.34706">
        <ele>198</ele>
        <time>2016-12-27T12:19:31Z</time>
      </trkpt>
      <trkpt lat="48.73936" lon="7.3469">
        <ele>197</ele>
        <time>2016-12-27T12:21:31Z</time>
      </trkpt>
      <trkpt lat="48.73921" lon="7.34641">
        <ele>198</ele>
        <time>2016-12-27T12:23:31Z</time>
      </trkpt>
      <trkpt lat="48.73897" lon="7.34614">
        <ele>197</ele>
        <time>2016-12-27T12:25:31Z</time>
      </trkpt>
      <trkpt lat="48.73887" lon="7.34577">
        <ele>197</ele>
        <time>2016-12-27T12:27:31Z</time>
      </trkpt>
      <trkpt lat="48.73857" lon="7.34592">
        <ele>193</ele>
        <time>2016-12-27T12:29:31Z</time>
      </trkpt>
      <trkpt lat="48.73825" lon="7.34335">
        <ele>209</ele>
        <time>2016-12-27T12:31:31Z</time>
      </trkpt>
      <trkpt lat="48.73814" lon="7.34349">
        <ele>210</ele>
        <time>2016-12-27T12:33:31Z</time>
      </trkpt>
      <trkpt lat="48.73805" lon="7.34419">
        <ele>206</ele>
        <time>2016-12-27T12:35:31Z</time>
      </trkpt>
      <trkpt lat="48.73789" lon="7.34439">
        <ele>205</ele>
        <time>2016-12-27T12:37:31Z</time>
      </trkpt>
      <trkpt lat="48.7377" lon="7.34422">
        <ele>209</ele>
        <time>2016-12-27T12:39:31Z</time>
      </trkpt>
      <trkpt lat="48.73725" lon="7.34348">
        <ele>220</ele>
        <time>2016-12-27T12:41:31Z</time>
      </trkpt>
      <trkpt lat="48.73704" lon="7.3434">
        <ele>218</ele>
        <time>2016-12-27T12:43:31Z</time>
      </trkpt>
      <trkpt lat="48.73672" lon="7.34335">
        <ele>214</ele>
        <time>2016-12-27T12:45:31Z</time>
      </trkpt>
      <trkpt lat="48.73646" lon="7.34288">
        <ele>221</ele>
        <time>2016-12-27T12:47:31Z</time>
      </trkpt>
      <trkpt lat="48.73613" lon="7.34232">
        <ele>224</ele>
        <time>2016-12-27T12:49:31Z</time>
      </trkpt>
      <trkpt lat="48.73585" lon="7.34133">
        <ele>242</ele>
        <time>2016-12-27T12:51:31Z</time>
      </trkpt>
      <trkpt lat="48.73549" lon="7.3406">
        <ele>249</ele>
        <time>2016-12-27T12:53:31Z</time>
      </trkpt>
      <trkpt lat="48.73518" lon="7.34027">
        <ele>251</ele>
        <time>2016-12-27T12:55:31Z</time>
      </trkpt>
      <trkpt lat="48.73473" lon="7.33965">
        <ele>257</ele>
        <time>2016-12-27T12:57:31Z</time>
      </trkpt>
      <trkpt lat="48.73434" lon="7.33894">
        <ele>262</ele>
        <time>2016-12-27T12:59:31Z</time>
      </trkpt>
      <trkpt lat="48.73418" lon="7.33814">
        <ele>273</ele>
        <time>2016-12-27T13:01:31Z</time>
      </trkpt>
      <trkpt lat="48.73426" lon="7.33723">
        <ele>285</ele>
        <time>2016-12-27T13:03:31Z</time>
      </trkpt>
      <trkpt lat="48.73435" lon="7.33626">
        <ele>296</ele>
        <time>2016-12-27T13:05:31Z</time>
      </trkpt>
      <trkpt lat="48.73439" lon="7.33516">
        <ele>305</ele>
        <time>2016-12-27T13:07:31Z</time>
      </trkpt>
      <trkpt lat="48.73455" lon="7.33485">
        <ele>314</ele>
        <time>2016-12-27T13:09:31Z</time>
      </trkpt>
      <trkpt lat="48.73464" lon="7.33404">
        <ele>317</ele>
        <time>2016-12-27T13:11:31Z</time>
      </trkpt>
      <trkpt lat="48.73477" lon="7.33322">
        <ele>325</ele>
        <time>2016-12-27T13:13:31Z</time>
      </trkpt>
      <trkpt lat="48.73479" lon="7.33217">
        <ele>333</ele>
        <time>2016-12-27T13:15:31Z</time>
      </trkpt>
      <trkpt lat="48.73476" lon="7.33116">
        <ele>343</ele>
        <time>2016-12-27T13:17:31Z</time>
      </trkpt>
      <trkpt lat="48.73461" lon="7.33004">
        <ele>352</ele>
        <time>2016-12-27T13:19:31Z</time>
      </trkpt>
      <trkpt lat="48.73435" lon="7.32877">
        <ele>358</ele>
        <time>2016-12-27T13:21:31Z</time>
      </trkpt>
      <trkpt lat="48.73408" lon="7.32778">
        <ele>369</ele>
        <time>2016-12-27T13:23:31Z</time>
      </trkpt>
      <trkpt lat="48.73366" lon="7.32673">
        <ele>383</ele>
        <time>2016-12-27T13:25:31Z</time>
      </trkpt>
      <trkpt lat="48.73351" lon="7.32645">
        <ele>386</ele>
        <time>2016-12-27T13:27:31Z</time>
      </trkpt>
      <trkpt lat="48.73325" lon="7.32629">
        <ele>381</ele>
        <time>2016-12-27T13:29:31Z</time>
      </trkpt>
      <trkpt lat="48.73358" lon="7.32618">
        <ele>398</ele>
        <time>2016-12-27T13:31:31Z</time>
      </trkpt>
      <trkpt lat="48.73357" lon="7.32586">
        <ele>407</ele>
        <time>2016-12-27T13:33:31Z</time>
      </trkpt>
      <trkpt lat="48.73329" lon="7.3254">
        <ele>408</ele>
        <time>2016-12-27T13:35:31Z</time>
      </trkpt>
      <trkpt lat="48.73298" lon="7.32483">
        <ele>404</ele>
        <time>2016-12-27T13:37:31Z</time>
      </trkpt>
      <trkpt lat="48.73271" lon="7.32421">
        <ele>403</ele>
        <time>2016-12-27T13:39:31Z</time>
      </trkpt>
      <trkpt lat="48.73232" lon="7.3234">
        <ele>411</ele>
        <time>2016-12-27T13:41:31Z</time>
      </trkpt>
      <trkpt lat="48.73179" lon="7.32264">
        <ele>414</ele>
        <time>2016-12-27T13:43:31Z</time>
      </trkpt>
      <trkpt lat="48.73117" lon="7.32215">
        <ele>411</ele>
        <time>2016-12-27T13:45:31Z</time>
      </trkpt>
      <trkpt lat="48.73041" lon="7.32221">
        <ele>400</ele>
        <time>2016-12-27T13:47:31Z</time>
      </trkpt>
      <trkpt lat="48.72981" lon="7.32266">
        <ele>388</ele>
        <time>2016-12-27T13:49:31Z</time>
      </trkpt>
      <trkpt lat="48.72953" lon="7.32276">
        <ele>382</ele>
        <time>2016-12-27T13:51:31Z</time>
      </trkpt>
      <trkpt lat="48.72939" lon="7.32222">
        <ele>387</ele>
        <time>2016-12-27T13:53:31Z</time>
      </trkpt>
      <trkpt lat="48.72888" lon="7.32023">
        <ele>398</ele>
        <time>2016-12-27T13:55:31Z</time>
      </trkpt>
      <trkpt lat="48.72909" lon="7.31905">
        <ele>408</ele>
        <time>2016-12-27T13:57:31Z</time>
      </trkpt>
      <trkpt lat="48.72935" lon="7.31889">
        <ele>411</ele>
        <time>2016-12-27T13:59:31Z</time>
      </trkpt>
      <trkpt lat="48.73012" lon="7.31909">
        <ele>418</ele>
        <time>2016-12-27T14:01:31Z</time>
      </trkpt>
      <trkpt lat="48.73079" lon="7.31879">
        <ele>422</ele>
        <time>2016-12-27T14:03:31Z</time>
      </trkpt>
      <trkpt lat="48.7315" lon="7.31869">
        <ele>432</ele>
        <time>2016-12-27T14:05:31Z</time>
      </trkpt>
      <trkpt lat="48.73227" lon="7.31762">
        <ele>439</ele>
        <time>2016-12-27T14:07:31Z</time>
      </trkpt>
      <trkpt lat="48.73246" lon="7.31682">
        <ele>444</ele>
        <time>2016-12-27T14:09:31Z</time>
      </trkpt>
      <trkpt lat="48.73254" lon="7.31611">
        <ele>445</ele>
        <time>2016-12-27T14:11:31Z</time>
      </trkpt>
      <trkpt lat="48.73295" lon="7.3148">
        <ele>447</ele>
        <time>2016-12-27T14:13:31Z</time>
      </trkpt>
      <trkpt lat="48.73387" lon="7.31372">
        <ele>454</ele>
        <time>2016-12-27T14:15:31Z</time>
      </trkpt>
      <trkpt lat="48.73503" lon="7.31225">
        <ele>447</ele>
        <time>2016-12-27T14:17:31Z</time>
      </trkpt>
      <trkpt lat="48.73535" lon="7.31179">
        <ele>441</ele>
        <time>2016-12-27T14:19:31Z</time>
      </trkpt>
      <trkpt lat="48.73596" lon="7.31045">
        <ele>437</ele>
        <time>2016-12-27T14:21:31Z</time>
      </trkpt>
      <trkpt lat="48.73625" lon="7.30955">
        <ele>444</ele>
        <time>2016-12-27T14:23:31Z</time>
      </trkpt>
      <trkpt lat="48.73672" lon="7.31069">
        <ele>449</ele>
        <time>2016-12-27T14:25:31Z</time>
      </trkpt>
      <trkpt lat="48.73714" lon="7.31121">
        <ele>455</ele>
        <time>2016-12-27T14:27:31Z</time>
      </trkpt>
      <trkpt lat="48.73768" lon="7.3116">
        <ele>457</ele>
        <time>2016-12-27T14:29:31Z</time>
      </trkpt>
      <trkpt lat="48.73856" lon="7.31168">
        <ele>452</ele>
        <time>2016-12-27T14:31:31Z</time>
      </trkpt>
      <trkpt lat="48.73875" lon="7.31247">
        <ele>449</ele>
        <time>2016-12-27T14:33:31Z</time>
      </trkpt>
      <trkpt lat="48.73932" lon="7.31261">
        <ele>441</ele>
        <time>2016-12-27T14:35:31Z</time>
      </trkpt>
      <trkpt lat="48.73984" lon="7.31452">
        <ele>427</ele>
        <time>2016-12-27T14:37:31Z</time>
      </trkpt>
      <trkpt lat="48.74026" lon="7.3133">
        <ele>418</ele>
        <time>2016-12-27T14:39:31Z</time>
      </trkpt>
      <trkpt lat="48.74068" lon="7.31448">
        <ele>402</ele>
        <time>2016-12-27T14:41:31Z</time>
      </trkpt>
      <trkpt lat="48.74087" lon="7.31418">
        <ele>396</ele>
        <time>2016-12-27T14:43:31Z</time>
      </trkpt>
      <trkpt lat="48.74093" lon="7.31316">
        <ele>401</ele>
        <time>2016-12-27T14:45:31Z</time>
      </trkpt>
      <trkpt lat="48.74115" lon="7.3126">
        <ele>403</ele>
        <time>2016-12-27T14:47:31Z</time>
      </trkpt>
      <trkpt lat="48.74152" lon="7.31248">
        <ele>397</ele>
        <time>2016-12-27T14:49:31Z</time>
      </trkpt>
      <trkpt lat="48.74214" lon="7.31249">
        <ele>386</ele>
        <time>2016-12-27T14:51:31Z</time>
      </trkpt>
      <trkpt lat="48.74255" lon="7.31183">
        <ele>395</ele>
        <time>2016-12-27T14:53:31Z</time>
      </trkpt>
      <trkpt lat="48.74292" lon="7.31115">
        <ele>398</ele>
        <time>2016-12-27T14:55:31Z</time>
      </trkpt>
      <trkpt lat="48.74334" lon="7.31034">
        <ele>400</ele>
        <time>2016-12-27T14:57:31Z</time>
      </trkpt>
      <trkpt lat="48.74378" lon="7.30964">
        <ele>401</ele>
        <time>2016-12-27T14:59:31Z</time>
      </trkpt>
      <trkpt lat="48.74418" lon="7.30895">
        <ele>403</ele>
        <time>2016-12-27T15:01:31Z</time>
      </trkpt>
      <trkpt lat="48.74461" lon="7.30798">
        <ele>407</ele>
        <time>2016-12-27T15:03:31Z</time>
      </trkpt>
      <trkpt lat="48.74492" lon="7.3069">
        <ele>405</ele>
        <time>2016-12-27T15:05:31Z</time>
      </trkpt>
      <trkpt lat="48.74519" lon="7.30664">
        <ele>406</ele>
        <time>2016-12-27T15:07:31Z</time>
      </trkpt>
      <trkpt lat="48.74558" lon="7.30687">
        <ele>407</ele>
        <time>2016-12-27T15:09:31Z</time>
      </trkpt>
      <trkpt lat="48.74607" lon="7.30802">
        <ele>405</ele>
        <time>2016-12-27T15:11:31Z</time>
      </trkpt>
      <trkpt lat="48.74617" lon="7.30926">
        <ele>404</ele>
        <time>2016-12-27T15:13:31Z</time>
      </trkpt>
      <trkpt lat="48.74629" lon="7.30824">
        <ele>408</ele>
        <time>2016-12-27T15:15:31Z</time>
      </trkpt>
      <trkpt lat="48.7461" lon="7.30732">
        <ele>409</ele>
        <time>2016-12-27T15:17:31Z</time>
      </trkpt>
      <trkpt lat="48.74581" lon="7.30639">
        <ele>414</ele>
        <time>2016-12-27T15:19:31Z</time>
      </trkpt>
      <trkpt lat="48.74536" lon="7.30512">
        <ele>422</ele>
        <time>2016-12-27T15:21:31Z</time>
      </trkpt>
      <trkpt lat="48.7446" lon="7.30423">
        <ele>431</ele>
        <time>2016-12-27T15:23:31Z</time>
      </trkpt>
      <trkpt lat="48.74508" lon="7.30412">
        <ele>428</ele>
        <time>2016-12-27T15:25:31Z</time>
      </trkpt>
      <trkpt lat="48.74554" lon="7.30443">
        <ele>425</ele>
        <time>2016-12-27T15:27:31Z</time>
      </trkpt>
      <trkpt lat="48.74632" lon="7.30502">
        <ele>426</ele>
        <time>2016-12-27T15:29:31Z</time>
      </trkpt>
      <trkpt lat="48.74676" lon="7.30459">
        <ele>423</ele>
        <time>2016-12-27T15:31:31Z</time>
      </trkpt>
      <trkpt lat="48.74724" lon="7.30396">
        <ele>414</ele>
        <time>2016-12-27T15:33:31Z</time>
      </trkpt>
      <trkpt lat="48.74739" lon="7.30322">
        <ele>405</ele>
        <time>2016-12-27T15:35:31Z</time>
      </trkpt>
      <trkpt lat="48.74735" lon="7.30284">
        <ele>403</ele>
        <time>2016-12-27T15:37:31Z</time>
      </trkpt>
      <trkpt lat="48.74715" lon="7.30241">
        <ele>403</ele>
        <time>2016-12-27T15:39:31Z</time>
      </trkpt>
      <trkpt lat="48.74703" lon="7.30143">
        <ele>391</ele>
        <time>2016-12-27T15:41:31Z</time>
      </trkpt>
      <trkpt lat="48.74708" lon="7.30084">
        <ele>381</ele>
        <time>2016-12-27T15:43:31Z</time>
      </trkpt>
      <trkpt lat="48.74694" lon="7.29985">
        <ele>374</ele>
        <time>2016-12-27T15:45:31Z</time>
      </trkpt>
      <trkpt lat="48.74713" lon="7.29946">
        <ele>365</ele>
        <time>2016-12-27T15:47:31Z</time>
      </trkpt>
      <trkpt lat="48.74735" lon="7.29969">
        <ele>362</ele>
        <time>2016-12-27T15:49:31Z</time>
      </trkpt>
      <trkpt lat="48.74729" lon="7.29875">
        <ele>352</ele>
        <time>2016-12-27T15:51:31Z</time>
      </trkpt>
      <trkpt lat="48.74717" lon="7.29806">
        <ele>347</ele>
        <time>2016-12-27T15:53:31Z</time>
      </trkpt>
      <trkpt lat="48.74702" lon="7.29736">
        <ele>344</ele>
        <time>2016-12-27T15:55:31Z</time>
      </trkpt>
      <trkpt lat="48.74718" lon="7.29642">
        <ele>329</ele>
        <time>2016-12-27T15:57:31Z</time>
      </trkpt>
      <trkpt lat="48.74761" lon="7.2946">
        <ele>305</ele>
        <time>2016-12-27T15:59:31Z</time>
      </trkpt>
      <trkpt lat="48.74794" lon="7.29257">
        <ele>289</ele>
        <time>2016-12-27T16:01:31Z</time>
      </trkpt>
      <trkpt lat="48.74816" lon="7.29145">
        <ele>274</ele>
        <time>2016-12-27T16:03:31Z</time>
      </trkpt>
      <trkpt lat="48.74841" lon="7.29142">
        <ele>272</ele>
        <time>2016-12-27T16:05:31Z</time>
      </trkpt>
      <trkpt lat="48.74858" lon="7.29108">
        <ele>275</ele>
        <time>2016-12-27T16:07:31Z</time>
      </trkpt>
      <trkpt lat="48.74849" lon="7.2908">
        <ele>275</ele>
        <time>2016-12-27T16:09:31Z</time>
      </trkpt>
      <trkpt lat="48.74885" lon="7.29115">
        <ele>278</ele>
        <time>2016-12-27T16:11:31Z</time>
      </trkpt>
      <trkpt lat="48.74938" lon="7.29122">
        <ele>284</ele>
        <time>2016-12-27T16:13:31Z</time>
      </trkpt>
      <trkpt lat="48.75" lon="7.29139">
        <ele>288</ele>
        <time>2016-12-27T16:15:31Z</time>
      </trkpt>
      <trkpt lat="48.75066" lon="7.29157">
        <ele>289</ele>
        <time>2016-12-27T16:17:31Z</time>
      </trkpt>
      <trkpt lat="48.75148" lon="7.29184">
        <ele>291</ele>
        <time>2016-12-27T16:19:31Z</time>
      </trkpt>
      <trkpt lat="48.7523" lon="7.29207">
        <ele>297</ele>
        <time>2016-12-27T16:21:31Z</time>
      </trkpt>
      <trkpt lat="48.75305" lon="7.29284">
        <ele>296</ele>
        <time>2016-12-27T16:23:31Z</time>
      </trkpt>
      <trkpt lat="48.75374" lon="7.29375">
        <ele>295</ele>
        <time>2016-12-27T16:25:31Z</time>
      </trkpt>
      <trkpt lat="48.75426" lon="7.29408">
        <ele>291</ele>
        <time>2016-12-27T16:27:31Z</time>
      </trkpt>
      <trkpt lat="48.75377" lon="7.29355">
        <ele>297</ele>
        <time>2016-12-27T16:29:31Z</time>
      </trkpt>
      <trkpt lat="48.75343" lon="7.29308">
        <ele>296</ele>
        <time>2016-12-27T16:31:31Z</time>
      </trkpt>
      <trkpt lat="48.75293" lon="7.29234">
        <ele>301</ele>
        <time>2016-12-27T16:33:31Z</time>
      </trkpt>
      <trkpt lat="48.75223" lon="7.29136">
        <ele>312</ele>
        <time>2016-12-27T16:35:31Z</time>
      </trkpt>
      <trkpt lat="48.75142" lon="7.29092">
        <ele>316</ele>
        <time>2016-12-27T16:37:31Z</time>
      </trkpt>
      <trkpt lat="48.75087" lon="7.29054">
        <ele>322</ele>
        <time>2016-12-27T16:39:31Z</time>
      </trkpt>
      <trkpt lat="48.75054" lon="7.29032">
        <ele>325</ele>
        <time>2016-12-27T16:41:31Z</time>
      </trkpt>
      <trkpt lat="48.75003" lon="7.29018">
        <ele>323</ele>
        <time>2016-12-27T16:43:31Z</time>
      </trkpt>
      <trkpt lat="48.74941" lon="7.29008">
        <ele>313</ele>
        <time>2016-12-27T16:45:31Z</time>
      </trkpt>
      <trkpt lat="48.74914" lon="7.28984">
        <ele>310</ele>
        <time>2016-12-27T16:47:31Z</time>
      </trkpt>
      <trkpt lat="48.74903" lon="7.28934">
        <ele>311</ele>
        <time>2016-12-27T16:49:31Z</time>
      </trkpt>
      <trkpt lat="48.74903" lon="7.2885">
        <ele>314</ele>
        <time>2016-12-27T16:51:31Z</time>
      </trkpt>
      <trkpt lat="48.74905" lon="7.28755">
        <ele>320</ele>
        <time>2016-12-27T16:53:31Z</time>
      </trkpt>
      <trkpt lat="48.74905" lon="7.28708">
        <ele>321</ele>
        <time>2016-12-27T16:55:31Z</time>
      </trkpt>
      <trkpt lat="48.74911" lon="7.28637">
        <ele>323</ele>
        <time>2016-12-27T16:57:31Z</time>
      </trkpt>
      <trkpt lat="48.74894" lon="7.28596">
        <ele>325</ele>
        <time>2016-12-27T16:59:31Z</time>
      </trkpt>
      <trkpt lat="48.74872" lon="7.28585">
        <ele>328</ele>
        <time>2016-12-27T17:01:31Z</time>
      </trkpt>
      <trkpt lat="48.7485" lon="7.28628">
        <ele>327</ele>
        <time>2016-12-27T17:03:31Z</time>
      </trkpt>
      <trkpt lat="48.7481" lon="7.28699">
        <ele>326</ele>
        <time>2016-12-27T17:05:31Z</time>
      </trkpt>
      <trkpt lat="48.74746" lon="7.2878">
        <ele>331</ele>
        <time>2016-12-27T17:07:31Z</time>
      </trkpt>
      <trkpt lat="48.74707" lon="7.28834">
        <ele>324</ele>
        <time>2016-12-27T17:09:31Z</time>
      </trkpt>
      <trkpt lat="48.74638" lon="7.28811">
        <ele>331</ele>
        <time>2016-12-27T17:11:31Z</time>
      </trkpt>
      <trkpt lat="48.74551" lon="7.2878">
        <ele>335</ele>
        <time>2016-12-27T17:13:31Z</time>
      </trkpt>
      <trkpt lat="48.74452" lon="7.28774">
        <ele>329</ele>
        <time>2016-12-27T17:15:31Z</time>
      </trkpt>
      <trkpt lat="48.74272" lon="7.28709">
        <ele>328</ele>
        <time>2016-12-27T17:17:31Z</time>
      </trkpt>
      <trkpt lat="48.74222" lon="7.28694">
        <ele>328</ele>
        <time>2016-12-27T17:19:31Z</time>
      </trkpt>
      <trkpt lat="48.74168" lon="7.28683">
        <ele>327</ele>
        <time>2016-12-27T17:21:31Z</time>
      </trkpt>
      <trkpt lat="48.74102" lon="7.28666">
        <ele>323</ele>
        <time>2016-12-27T17:23:31Z</time>
      </trkpt>
      <trkpt lat="48.74028" lon="7.28621">
        <ele>319</ele>
        <time>2016-12-27T17:25:31Z</time>
      </trkpt>
      <trkpt lat="48.73977" lon="7.28568">
        <ele>320</ele>
        <time>2016-12-27T17:27:31Z</time>
      </trkpt>
      <trkpt lat="48.74002" lon="7.28521">
        <ele>321</ele>
        <time>2016-12-27T17:29:31Z</time>
      </trkpt>
      <trkpt lat="48.74103" lon="7.28424">
        <ele>317</ele>
        <time>2016-12-27T17:31:31Z</time>
      </trkpt>
      <trkpt lat="48.74185" lon="7.28398">
        <ele>317</ele>
        <time>2016-12-27T17:33:31Z</time>
      </trkpt>
      <trkpt lat="48.74197" lon="7.28357">
        <ele>312</ele>
        <time>2016-12-27T17:35:31Z</time>
      </trkpt>
      <trkpt lat="48.74213" lon="7.28332">
        <ele>310</ele>
        <time>2016-12-27T17:37:31Z</time>
      </trkpt>
      <trkpt lat="48.74253" lon="7.28314">
        <ele>310</ele>
        <time>2016-12-27T17:39:31Z</time>
      </trkpt>
      <trkpt lat="48.74232" lon="7.28304">
        <ele>305</ele>
        <time>2016-12-27T17:41:31Z</time>
      </trkpt>
      <trkpt lat="48.74304" lon="7.28261">
        <ele>308</ele>
        <time>2016-12-27T17:43:31Z</time>
      </trkpt>
      <trkpt lat="48.74361" lon="7.28198">
        <ele>302</ele>
        <time>2016-12-27T17:45:31Z</time>
      </trkpt>
      <trkpt lat="48.7443" lon="7.28142">
        <ele>296</ele>
        <time>2016-12-27T17:47:31Z</time>
      </trkpt>
      <trkpt lat="48.74521" lon="7.28025">
        <ele>282</ele>
        <time>2016-12-27T17:49:31Z</time>
      </trkpt>
      <trkpt lat="48.74609" lon="7.27916">
        <ele>279</ele>
        <time>2016-12-27T17:51:31Z</time>
      </trkpt>
      <trkpt lat="48.74662" lon="7.27849">
        <ele>278</ele>
        <time>2016-12-27T17:53:31Z</time>
      </trkpt>
      <trkpt lat="48.74692" lon="7.27751">
        <ele>278</ele>
        <time>2016-12-27T17:55:31Z</time>
      </trkpt>
      <trkpt lat="48.74718" lon="7.2767">
        <ele>277</ele>
        <time>2016-12-27T17:57:31Z</time>
      </trkpt>
      <trkpt lat="48.74721" lon="7.27597">
        <ele>272</ele>
        <time>2016-12-27T17:59:31Z</time>
      </trkpt>
      <trkpt lat="48.7471" lon="7.27531">
        <ele>272</ele>
        <time>2016-12-27T18:01:31Z</time>
      </trkpt>
      <trkpt lat="48.74713" lon="7.27501">
        <ele>272</ele>
        <time>2016-12-27T18:03:31Z</time>
      </trkpt>
      <trkpt lat="48.74681" lon="7.27558">
        <ele>273</ele>
        <time>2016-12-27T18:05:31Z</time>
      </trkpt>
      <trkpt lat="48.74638" lon="7.27646">
        <ele>276</ele>
        <time>2016-12-27T18:07:31Z</time>
      </trkpt>
      <trkpt lat="48.74582" lon="7.27729">
        <ele>274</ele>
        <time>2016-12-27T18:09:31Z</time>
      </trkpt>
      <trkpt lat="48.7449" lon="7.27789">
        <ele>284</ele>
        <time>2016-12-27T18:11:31Z</time>
      </trkpt>
      <trkpt lat="48.74396" lon="7.27841">
        <ele>279</ele>
        <time>2016-12-27T18:13:31Z</time>
      </trkpt>
      <trkpt lat="48.74316" lon="7.2785">
        <ele>286</ele>
        <time>2016-12-27T18:15:31Z</time>
      </trkpt>
      <trkpt lat="48.74243" lon="7.27872">
        <ele>297</ele>
        <time>2016-12-27T18:17:31Z</time>
      </trkpt>
      <trkpt lat="48.74177" lon="7.27912">
        <ele>300</ele>
        <time>2016-12-27T18:19:31Z</time>
      </trkpt>
      <trkpt lat="48.74105" lon="7.27948">
        <ele>306</ele>
        <time>2016-12-27T18:21:31Z</time>
      </trkpt>
      <trkpt lat="48.74052" lon="7.27967">
        <ele>309</ele>
        <time>2016-12-27T18:23:31Z</time>
      </trkpt>
      <trkpt lat="48.73978" lon="7.28006">
        <ele>305</ele>
        <time>2016-12-27T18:25:31Z</time>
      </trkpt>
      <trkpt lat="48.73881" lon="7.28029">
        <ele>308</ele>
        <time>2016-12-27T18:27:31Z</time>
      </trkpt>
      <trkpt lat="48.73779" lon="7.28055">
        <ele>306</ele>
        <time>2016-12-27T18:29:31Z</time>
      </trkpt>
      <trkpt lat="48.73705" lon="7.28066">
        <ele>293</ele>
        <time>2016-12-27T18:31:31Z</time>
      </trkpt>
      <trkpt lat="48.73654" lon="7.27999">
        <ele>293</ele>
        <time>2016-12-27T18:33:31Z</time>
      </trkpt>
      <trkpt lat="48.73631" lon="7.27885">
        <ele>291</ele>
        <time>2016-12-27T18:35:31Z</time>
      </trkpt>
      <trkpt lat="48.73635" lon="7.2776">
        <ele>284</ele>
        <time>2016-12-27T18:37:31Z</time>
      </trkpt>
      <trkpt lat="48.73659" lon="7.27672">
        <ele>281</ele>
        <time>2016-12-27T18:39:31Z</time>
      </trkpt>
      <trkpt lat="48.73718" lon="7.27618">
        <ele>289</ele>
        <time>2016-12-27T18:41:31Z</time>
      </trkpt>
      <trkpt lat="48.73791" lon="7.27549">
        <ele>291</ele>
        <time>2016-12-27T18:43:31Z</time>
      </trkpt>
      <trkpt lat="48.73842" lon="7.27479">
        <ele>284</ele>
        <time>2016-12-27T18:45:31Z</time>
      </trkpt>
      <trkpt lat="48.73872" lon="7.27399">
        <ele>276</ele>
        <time>2016-12-27T18:47:31Z</time>
      </trkpt>
      <trkpt lat="48.73935" lon="7.27296">
        <ele>291</ele>
        <time>2016-12-27T18:49:31Z</time>
      </trkpt>
      <trkpt lat="48.73961" lon="7.27214">
        <ele>296</ele>
        <time>2016-12-27T18:51:31Z</time>
      </trkpt>
      <trkpt lat="48.73986" lon="7.27081">
        <ele>300</ele>
        <time>2016-12-27T18:53:31Z</time>
      </trkpt>
      <trkpt lat="48.73956" lon="7.26962">
        <ele>288</ele>
        <time>2016-12-27T18:55:31Z</time>
      </trkpt>
      <trkpt lat="48.73958" lon="7.26861">
        <ele>289</ele>
        <time>2016-12-27T18:57:31Z</time>
      </trkpt>
      <trkpt lat="48.73975" lon="7.26737">
        <ele>295</ele>
        <time>2016-12-27T18:59:31Z</time>
      </trkpt>
      <trkpt lat="48.74009" lon="7.26596">
        <ele>295</ele>
        <time>2016-12-27T19:01:31Z</time>
      </trkpt>
      <trkpt lat="48.74036" lon="7.26437">
        <ele>299</ele>
        <time>2016-12-27T19:03:31Z</time>
      </trkpt>
      <trkpt lat="48.74038" lon="7.26359">
        <ele>301</ele>
        <time>2016-12-27T19:05:31Z</time>
      </trkpt>
      <trkpt lat="48.74033" lon="7.2631">
        <ele>298</ele>
        <time>2016-12-27T19:07:31Z</time>
      </trkpt>
      <trkpt lat="48.74052" lon="7.26205">
        <ele>304</ele>
        <time>2016-12-27T19:09:31Z</time>
      </trkpt>
      <trkpt lat="48.7404" lon="7.26118">
        <ele>306</ele>
        <time>2016-12-27T19:11:31Z</time>
      </trkpt>
      <trkpt lat="48.73984" lon="7.26035">
        <ele>305</ele>
        <time>2016-12-27T19:13:31Z</time>
      </trkpt>
      <trkpt lat="48.73964" lon="7.2603">
        <ele>299</ele>
        <time>2016-12-27T19:15:31Z</time>
      </trkpt>
      <trkpt lat="48.73934" lon="7.2598">
        <ele>303</ele>
        <time>2016-12-27T19:17:31Z</time>
      </trkpt>
      <trkpt lat="48.73842" lon="7.25841">
        <ele>316</ele>
        <time>2016-12-27T19:19:31Z</time>
      </trkpt>
      <trkpt lat="48.73764" lon="7.25794">
        <ele>301</ele>
        <time>2016-12-27T19:21:31Z</time>
      </trkpt>
      <trkpt lat="48.73758" lon="7.25763">
        <ele>304</ele>
        <time>2016-12-27T19:23:31Z</time>
      </trkpt>
      <trkpt lat="48.73739" lon="7.25703">
        <ele>300</ele>
        <time>2016-12-27T19:25:31Z</time>
      </trkpt>
      <trkpt lat="48.73744" lon="7.25642">
        <ele>303</ele>
        <time>2016-12-27T19:27:31Z</time>
      </trkpt>
      <trkpt lat="48.73754" lon="7.25574">
        <ele>299</ele>
        <time>2016-12-27T19:29:31Z</time>
      </trkpt>
      <trkpt lat="48.73777" lon="7.2552">
        <ele>296</ele>
        <time>2016-12-27T19:31:31Z</time>
      </trkpt>
      <trkpt lat="48.7382" lon="7.25503">
        <ele>312</ele>
        <time>2016-12-27T19:33:31Z</time>
      </trkpt>
      <trkpt lat="48.73881" lon="7.25479">
        <ele>314</ele>
        <time>2016-12-27T19:35:31Z</time>
      </trkpt>
      <trkpt lat="48.73965" lon="7.25451">
        <ele>308</ele>
        <time>2016-12-27T19:37:31Z</time>
      </trkpt>
      <trkpt lat="48.73886" lon="7.25412">
        <ele>293</ele>
        <time>2016-12-27T19:39:31Z</time>
      </trkpt>
      <trkpt lat="48.73778" lon="7.25379">
        <ele>253</ele>
        <time>2016-12-27T19:41:31Z</time>
      </trkpt>
      <trkpt lat="48.73808" lon="7.25348">
        <ele>253</ele>
        <time>2016-12-27T19:43:31Z</time>
      </trkpt>
      <trkpt lat="48.73753" lon="7.25379">
        <ele>243</ele>
        <time>2016-12-27T19:45:31Z</time>
      </trkpt>
      <trkpt lat="48.73707" lon="7.25462">
        <ele>247</ele>
        <time>2016-12-27T19:47:31Z</time>
      </trkpt>
      <trkpt lat="48.73682" lon="7.25565">
        <ele>250</ele>
        <time>2016-12-27T19:49:31Z</time>
      </trkpt>
      <trkpt lat="48.73658" lon="7.25683">
        <ele>244</ele>
        <time>2016-12-27T19:51:31Z</time>
      </trkpt>
      <trkpt lat="48.73666" lon="7.25806">
        <ele>242</ele>
        <time>2016-12-27T19:53:31Z</time>
      </trkpt>
      <trkpt lat="48.73711" lon="7.25907">
        <ele>246</ele>
        <time>2016-12-27T19:55:31Z</time>
      </trkpt>
      <trkpt lat="48.73784" lon="7.26018">
        <ele>239</ele>
        <time>2016-12-27T19:57:31Z</time>
      </trkpt>
      <trkpt lat="48.73849" lon="7.26136">
        <ele>230</ele>
        <time>2016-12-27T19:59:31Z</time>
      </trkpt>
      <trkpt lat="48.73896" lon="7.26253">
        <ele>231</ele>
        <time>2016-12-27T20:01:31Z</time>
      </trkpt>
      <trkpt lat="48.73924" lon="7.26408">
        <ele>236</ele>
        <time>2016-12-27T20:03:31Z</time>
      </trkpt>
      <trkpt lat="48.73923" lon="7.26533">
        <ele>242</ele>
        <time>2016-12-27T20:05:31Z</time>
      </trkpt>
      <trkpt lat="48.73897" lon="7.26617">
        <ele>240</ele>
        <time>2016-12-27T20:07:31Z</time>
      </trkpt>
      <trkpt lat="48.73871" lon="7.26755">
        <ele>239</ele>
        <time>2016-12-27T20:09:31Z</time>
      </trkpt>
      <trkpt lat="48.73861" lon="7.26872">
        <ele>237</ele>
        <time>2016-12-27T20:11:31Z</time>
      </trkpt>
      <trkpt lat="48.73864" lon="7.27032">
        <ele>238</ele>
        <time>2016-12-27T20:13:31Z</time>
      </trkpt>
      <trkpt lat="48.73837" lon="7.27154">
        <ele>230</ele>
        <time>2016-12-27T20:15:31Z</time>
      </trkpt>
      <trkpt lat="48.73814" lon="7.27247">
        <ele>231</ele>
        <time>2016-12-27T20:17:31Z</time>
      </trkpt>
      <trkpt lat="48.73752" lon="7.27368">
        <ele>226</ele>
        <time>2016-12-27T20:19:31Z</time>
      </trkpt>
      <trkpt lat="48.73671" lon="7.27495">
        <ele>228</ele>
        <time>2016-12-27T20:21:31Z</time>
      </trkpt>
      <trkpt lat="48.73581" lon="7.27621">
        <ele>235</ele>
        <time>2016-12-27T20:23:31Z</time>
      </trkpt>
      <trkpt lat="48.73511" lon="7.27759">
        <ele>222</ele>
        <time>2016-12-27T20:25:31Z</time>
      </trkpt>
      <trkpt lat="48.73501" lon="7.27821">
        <ele>223</ele>
        <time>2016-12-27T20:27:31Z</time>
      </trkpt>
      <trkpt lat="48.7348" lon="7.27842">
        <ele>221</ele>
        <time>2016-12-27T20:29:31Z</time>
      </trkpt>
      <trkpt lat="48.73461" lon="7.27909">
        <ele>221</ele>
        <time>2016-12-27T20:31:31Z</time>
      </trkpt>
      <trkpt lat="48.73452" lon="7.27982">
        <ele>222</ele>
        <time>2016-12-27T20:33:31Z</time>
      </trkpt>
      <trkpt lat="48.73412" lon="7.28064">
        <ele>216</ele>
        <time>2016-12-27T20:35:31Z</time>
      </trkpt>
      <trkpt lat="48.73378" lon="7.28151">
        <ele>215</ele>
        <time>2016-12-27T20:37:31Z</time>
      </trkpt>
      <trkpt lat="48.73343" lon="7.28185">
        <ele>209</ele>
        <time>2016-12-27T20:39:31Z</time>
      </trkpt>
      <trkpt lat="48.73325" lon="7.28172">
        <ele>205</ele>
        <time>2016-12-27T20:41:31Z</time>
      </trkpt>
      <trkpt lat="48.73375" lon="7.28038">
        <ele>212</ele>
        <time>2016-12-27T20:43:31Z</time>
      </trkpt>
      <trkpt lat="48.73423" lon="7.27897">
        <ele>212</ele>
        <time>2016-12-27T20:45:31Z</time>
      </trkpt>
      <trkpt lat="48.73472" lon="7.27756">
        <ele>215</ele>
        <time>2016-12-27T20:47:31Z</time>
      </trkpt>
      <trkpt lat="48.73534" lon="7.27589">
        <ele>219</ele>
        <time>2016-12-27T20:49:31Z</time>
      </trkpt>
      <trkpt lat="48.7349" lon="7.27529">
        <ele>219</ele>
        <time>2016-12-27T20:51:31Z</time>
      </trkpt>
      <trkpt lat="48.73461" lon="7.27551">
        <ele>223</ele>
        <time>2016-12-27T20:53:31Z</time>
      </trkpt>
      <trkpt lat="48.73413" lon="7.27643">
        <ele>223</ele>
        <time>2016-12-27T20:55:31Z</time>
      </trkpt>
      <trkpt lat="48.7337" lon="7.27697">
        <ele>220</ele>
        <time>2016-12-27T20:57:31Z</time>
      </trkpt>
      <trkpt lat="48.73352" lon="7.27755">
        <ele>217</ele>
        <time>2016-12-27T20:59:31Z</time>
      </trkpt>
      <trkpt lat="48.73312" lon="7.27827">
        <ele>223</ele>
        <time>2016-12-27T21:01:31Z</time>
      </trkpt>
      <trkpt lat="48.7331" lon="7.27804">
        <ele>225</ele>
        <time>2016-12-27T21:03:31Z</time>
      </trkpt>
      <trkpt lat="48.73325" lon="7.27742">
        <ele>222</ele>
        <time>2016-12-27T21:05:31Z</time>
      </trkpt>
      <trkpt lat="48.73283" lon="7.27635">
        <ele>235</ele>
        <time>2016-12-27T21:07:31Z</time>
      </trkpt>
      <trkpt lat="48.73208" lon="7.27536">
        <ele>248</ele>
        <time>2016-12-27T21:09:31Z</time>
      </trkpt>
      <trkpt lat="48.73123" lon="7.27444">
        <ele>259</ele>
        <time>2016-12-27T21:11:31Z</time>
      </trkpt>
      <trkpt lat="48.73045" lon="7.27369">
        <ele>262</ele>
        <time>2016-12-27T21:13:31Z</time>
      </trkpt>
      <trkpt lat="48.73098" lon="7.27457">
        <ele>263</ele>
        <time>2016-12-27T21:15:31Z</time>
      </trkpt>
      <trkpt lat="48.7315" lon="7.27552">
        <ele>260</ele>
        <time>2016-12-27T21:17:31Z</time>
      </trkpt>
      <trkpt lat="48.73176" lon="7.27633">
        <ele>262</ele>
        <time>2016-12-27T21:19:31Z</time>
      </trkpt>
      <trkpt lat="48.73142" lon="7.276">
        <ele>268</ele>
        <time>2016-12-27T21:21:31Z</time>
      </trkpt>
      <trkpt lat="48.73096" lon="7.27523">
        <ele>273</ele>
        <time>2016-12-27T21:23:31Z</time>
      </trkpt>
      <trkpt lat="48.73033" lon="7.27464">
        <ele>280</ele>
        <time>2016-12-27T21:25:31Z</time>
      </trkpt>
      <trkpt lat="48.72971" lon="7.27409">
        <ele>287</ele>
        <time>2016-12-27T21:27:31Z</time>
      </trkpt>
      <trkpt lat="48.72919" lon="7.27345">
        <ele>292</ele>
        <time>2016-12-27T21:29:31Z</time>
      </trkpt>
      <trkpt lat="48.7282" lon="7.27279">
        <ele>303</ele>
        <time>2016-12-27T21:31:31Z</time>
      </trkpt>
      <trkpt lat="48.72707" lon="7.27217">
        <ele>319</ele>
        <time>2016-12-27T21:33:31Z</time>
      </trkpt>
      <trkpt lat="48.7258" lon="7.27143">
        <ele>335</ele>
        <time>2016-12-27T21:35:31Z</time>
      </trkpt>
      <trkpt lat="48.72447" lon="7.27126">
        <ele>343</ele>
        <time>2016-12-27T21:37:31Z</time>
      </trkpt>
      <trkpt lat="48.72409" lon="7.27129">
        <ele>348</ele>
        <time>2016-12-27T21:39:31Z</time>
      </trkpt>
      <trkpt lat="48.72317" lon="7.27116">
        <ele>357</ele>
        <time>2016-12-27T21:41:31Z</time>
      </trkpt>
      <trkpt lat="48.72241" lon="7.27093">
        <ele>370</ele>
        <time>2016-12-27T21:43:31Z</time>
      </trkpt>
      <trkpt lat="48.72154" lon="7.27082">
        <ele>376</ele>
        <time>2016-12-27T21:45:31Z</time>
      </trkpt>
      <trkpt lat="48.72096" lon="7.27105">
        <ele>385</ele>
        <time>2016-12-27T21:47:31Z</time>
      </trkpt>
      <trkpt lat="48.72019" lon="7.27124">
        <ele>397</ele>
        <time>2016-12-27T21:49:31Z</time>
      </trkpt>
      <trkpt lat="48.7194" lon="7.27135">
        <ele>402</ele>
        <time>2016-12-27T21:51:31Z</time>
      </trkpt>
      <trkpt lat="48.71845" lon="7.27173">
        <ele>410</ele>
        <time>2016-12-27T21:53:31Z</time>
      </trkpt>
      <trkpt lat="48.71809" lon="7.27163">
        <ele>412</ele>
        <time>2016-12-27T21:55:31Z</time>
      </trkpt>
      <trkpt lat="48.71787" lon="7.27169">
        <ele>415</ele>
        <time>2016-12-27T21:57:31Z</time>
      </trkpt>
      <trkpt lat="48.71735" lon="7.27128">
        <ele>418</ele>
        <time>2016-12-27T21:59:31Z</time>
      </trkpt>
      <trkpt lat="48.71695" lon="7.2708">
        <ele>421</ele>
        <time>2016-12-27T22:01:31Z</time>
      </trkpt>
      <trkpt lat="48.71647" lon="7.27038">
        <ele>427</ele>
        <time>2016-12-27T22:03:31Z</time>
      </trkpt>
      <trkpt lat="48.71586" lon="7.26966">
        <ele>434</ele>
        <time>2016-12-27T22:05:31Z</time>
      </trkpt>
      <trkpt lat="48.71579" lon="7.27016">
        <ele>439</ele>
        <time>2016-12-27T22:07:31Z</time>
      </trkpt>
      <trkpt lat="48.71561" lon="7.27046">
        <ele>444</ele>
        <time>2016-12-27T22:09:31Z</time>
      </trkpt>
      <trkpt lat="48.71556" lon="7.27092">
        <ele>448</ele>
        <time>2016-12-27T22:11:31Z</time>
      </trkpt>
      <trkpt lat="48.71512" lon="7.2721">
        <ele>463</ele>
        <time>2016-12-27T22:13:31Z</time>
      </trkpt>
      <trkpt lat="48.71441" lon="7.27152">
        <ele>464</ele>
        <time>2016-12-27T22:15:31Z</time>
      </trkpt>
      <trkpt lat="48.71368" lon="7.27094">
        <ele>462</ele>
        <time>2016-12-27T22:17:31Z</time>
      </trkpt>
      <trkpt lat="48.71341" lon="7.2715">
        <ele>461</ele>
        <time>2016-12-27T22:19:31Z</time>
      </trkpt>
      <trkpt lat="48.71297" lon="7.27103">
        <ele>457</ele>
        <time>2016-12-27T22:21:31Z</time>
      </trkpt>
      <trkpt lat="48.71255" lon="7.27023">
        <ele>458</ele>
        <time>2016-12-27T22:23:31Z</time>
      </trkpt>
      <trkpt lat="48.71181" lon="7.26893">
        <ele>451</ele>
        <time>2016-12-27T22:25:31Z</time>
      </trkpt>
      <trkpt lat="48.71121" lon="7.26765">
        <ele>447</ele>
        <time>2016-12-27T22:27:31Z</time>
      </trkpt>
      <trkpt lat="48.711" lon="7.26702">
        <ele>446</ele>
        <time>2016-12-27T22:29:31Z</time>
      </trkpt>
      <trkpt lat="48.71076" lon="7.26589">
        <ele>445</ele>
        <time>2016-12-27T22:31:31Z</time>
      </trkpt>
      <trkpt lat="48.71028" lon="7.26552">
        <ele>447</ele>
        <time>2016-12-27T22:33:31Z</time>
      </trkpt>
      <trkpt lat="48.70983" lon="7.26536">
        <ele>450</ele>
        <time>2016-12-27T22:35:31Z</time>
      </trkpt>
      <trkpt lat="48.70931" lon="7.26504">
        <ele>454</ele>
        <time>2016-12-27T22:37:31Z</time>
      </trkpt>
      <trkpt lat="48.7087" lon="7.26473">
        <ele>455</ele>
        <time>2016-12-27T22:39:31Z</time>
      </trkpt>
      <trkpt lat="48.70819" lon="7.26486">
        <ele>458</ele>
        <time>2016-12-27T22:41:31Z</time>
      </trkpt>
      <trkpt lat="48.70749" lon="7.26476">
        <ele>458</ele>
        <time>2016-12-27T22:43:31Z</time>
      </trkpt>
      <trkpt lat="48.70674" lon="7.26471">
        <ele>459</ele>
        <time>2016-12-27T22:45:31Z</time>
      </trkpt>
      <trkpt lat="48.70598" lon="7.26463">
        <ele>462</ele>
        <time>2016-12-27T22:47:31Z</time>
      </trkpt>
      <trkpt lat="48.70516" lon="7.26418">
        <ele>464</ele>
        <time>2016-12-27T22:49:31Z</time>
      </trkpt>
      <trkpt lat="48.70455" lon="7.26399">
        <ele>462</ele>
        <time>2016-12-27T22:51:31Z</time>
      </trkpt>
      <trkpt lat="48.70403" lon="7.26436">
        <ele>463</ele>
        <time>2016-12-27T22:53:31Z</time>
      </trkpt>
      <trkpt lat="48.70326" lon="7.26511">
        <ele>464</ele>
        <time>2016-12-27T22:55:31Z</time>
      </trkpt>
      <trkpt lat="48.70198" lon="7.26564">
        <ele>466</ele>
        <time>2016-12-27T22:57:31Z</time>
      </trkpt>
      <trkpt lat="48.7015" lon="7.26549">
        <ele>464</ele>
        <time>2016-12-27T22:59:31Z</time>
      </trkpt>
      <trkpt lat="48.70089" lon="7.26481">
        <ele>462</ele>
        <time>2016-12-27T23:01:31Z</time>
      </trkpt>
      <trkpt lat="48.70014" lon="7.26462">
        <ele>469</ele>
        <time>2016-12-27T23:03:31Z</time>
      </trkpt>
      <trkpt lat="48.69941" lon="7.26471">
        <ele>481</ele>
        <time>2016-12-27T23:05:31Z</time>
      </trkpt>
      <trkpt lat="48.69859" lon="7.26446">
        <ele>487</ele>
        <time>2016-12-27T23:07:31Z</time>
      </trkpt>
      <trkpt lat="48.69813" lon="7.26404">
        <ele>487</ele>
        <time>2016-12-27T23:09:31Z</time>
      </trkpt>
      <trkpt lat="48.69786" lon="7.26271">
        <ele>492</ele>
        <time>2016-12-27T23:11:31Z</time>
      </trkpt>
      <trkpt lat="48.69724" lon="7.26154">
        <ele>491</ele>
        <time>2016-12-27T23:13:31Z</time>
      </trkpt>
      <trkpt lat="48.69681" lon="7.26056">
        <ele>488</ele>
        <time>2016-12-27T23:15:31Z</time>
      </trkpt>
      <trkpt lat="48.69626" lon="7.25997">
        <ele>487</ele>
        <time>2016-12-27T23:17:31Z</time>
      </trkpt>
      <trkpt lat="48.69575" lon="7.25948">
        <ele>484</ele>
        <time>2016-12-27T23:19:31Z</time>
      </trkpt>
      <trkpt lat="48.6951" lon="7.25936">
        <ele>485</ele>
        <time>2016-12-27T23:21:31Z</time>
      </trkpt>
      <trkpt lat="48.69471" lon="7.25933">
        <ele>487</ele>
        <time>2016-12-27T23:23:31Z</time>
      </trkpt>
      <trkpt lat="48.69419" lon="7.25951">
        <ele>492</ele>
        <time>2016-12-27T23:25:31Z</time>
      </trkpt>
      <trkpt lat="48.6939" lon="7.25969">
        <ele>492</ele>
        <time>2016-12-27T23:27:31Z</time>
      </trkpt>
      <trkpt lat="48.69338" lon="7.25962">
        <ele>493</ele>
        <time>2016-12-27T23:29:31Z</time>
      </trkpt>
      <trkpt lat="48.69267" lon="7.2589">
        <ele>487</ele>
        <time>2016-12-27T23:31:31Z</time>
      </trkpt>
      <trkpt lat="48.69174" lon="7.25802">
        <ele>485</ele>
        <time>2016-12-27T23:33:31Z</time>
      </trkpt>
      <trkpt lat="48.69089" lon="7.25778">
        <ele>480</ele>
        <time>2016-12-27T23:35:31Z</time>
      </trkpt>
      <trkpt lat="48.69088" lon="7.25789">
        <ele>478</ele>
        <time>2016-12-27T23:37:31Z</time>
      </trkpt>
      <trkpt lat="48.69144" lon="7.2583">
        <ele>480</ele>
        <time>2016-12-27T23:39:31Z</time>
      </trkpt>
      <trkpt lat="48.69167" lon="7.25883">
        <ele>472</ele>
        <time>2016-12-27T23:41:31Z</time>
      </trkpt>
      <trkpt lat="48.69226" lon="7.25974">
        <ele>467</ele>
        <time>2016-12-27T23:43:31Z</time>
      </trkpt>
      <trkpt lat="48.69242" lon="7.26071">
        <ele>461</ele>
        <time>2016-12-27T23:45:31Z</time>
      </trkpt>
      <trkpt lat="48.69257" lon="7.26174">
        <ele>458</ele>
        <time>2016-12-27T23:47:31Z</time>
      </trkpt>
      <trkpt lat="48.69262" lon="7.26249">
        <ele>451</ele>
        <time>2016-12-27T23:49:31Z</time>
      </trkpt>
      <trkpt lat="48.69273" lon="7.26299">
        <ele>447</ele>
        <time>2016-12-27T23:51:31Z</time>
      </trkpt>
      <trkpt lat="48.69283" lon="7.26368">
        <ele>437</ele>
        <time>2016-12-27T23:53:31Z</time>
      </trkpt>
      <trkpt lat="48.69303" lon="7.2644">
        <ele>426</ele>
        <time>2016-12-27T23:55:31Z</time>
      </trkpt>
      <trkpt lat="48.69339" lon="7.26461">
        <ele>425</ele>
        <time>2016-12-27T23:57:31Z</time>
      </trkpt>
      <trkpt lat="48.69384" lon="7.2644">
        <ele>425</ele>
        <time>2016-12-27T23:59:31Z</time>
      </trkpt>
      <trkpt lat="48.69449" lon="7.26397">
        <ele>421</ele>
        <time>2016-12-28T00:01:31Z</time>
      </trkpt>
      <trkpt lat="48.695" lon="7.26341">
        <ele>417</ele>
        <time>2016-12-28T00:03:31Z</time>
      </trkpt>
      <trkpt lat="48.69546" lon="7.26284">
        <ele>432</ele>
        <time>2016-12-28T00:05:31Z</time>
      </trkpt>
      <trkpt lat="48.69586" lon="7.26345">
        <ele>411</ele>
        <time>2016-12-28T00:07:31Z</time>
      </trkpt>
      <trkpt lat="48.69606" lon="7.2646">
        <ele>401</ele>
        <time>2016-12-28T00:09:31Z</time>
      </trkpt>
      <trkpt lat="48.69604" lon="7.26564">
        <ele>397</ele>
        <time>2016-12-28T00:11:31Z</time>
      </trkpt>
      <trkpt lat="48.696" lon="7.26652">
        <ele>397</ele>
        <time>2016-12-28T00:13:31Z</time>
      </trkpt>
      <trkpt lat="48.69565" lon="7.26735">
        <ele>395</ele>
        <time>2016-12-28T00:15:31Z</time>
      </trkpt>
      <trkpt lat="48.69529" lon="7.2682">
        <ele>394</ele>
        <time>2016-12-28T00:17:31Z</time>
      </trkpt>
      <trkpt lat="48.69513" lon="7.2691">
        <ele>393</ele>
        <time>2016-12-28T00:19:31Z</time>
      </trkpt>
      <trkpt lat="48.69541" lon="7.27006">
        <ele>388</ele>
        <time>2016-12-28T00:21:31Z</time>
      </trkpt>
      <trkpt lat="48.69597" lon="7.2708">
        <ele>380</ele>
        <time>2016-12-28T00:23:31Z</time>
      </trkpt>
      <trkpt lat="48.69669" lon="7.27157">
        <ele>375</ele>
        <time>2016-12-28T00:25:31Z</time>
      </trkpt>
      <trkpt lat="48.69743" lon="7.27227">
        <ele>365</ele>
        <time>2016-12-28T00:27:31Z</time>
      </trkpt>
      <trkpt lat="48.69776" lon="7.27214">
        <ele>365</ele>
        <time>2016-12-28T00:29:31Z</time>
      </trkpt>
      <trkpt lat="48.69805" lon="7.27136">
        <ele>372</ele>
        <time>2016-12-28T00:31:31Z</time>
      </trkpt>
      <trkpt lat="48.69846" lon="7.27051">
        <ele>371</ele>
        <time>2016-12-28T00:33:31Z</time>
      </trkpt>
      <trkpt lat="48.69898" lon="7.2697">
        <ele>365</ele>
        <time>2016-12-28T00:35:31Z</time>
      </trkpt>
      <trkpt lat="48.69968" lon="7.26908">
        <ele>365</ele>
        <time>2016-12-28T00:37:31Z</time>
      </trkpt>
      <trkpt lat="48.69988" lon="7.26973">
        <ele>356</ele>
        <time>2016-12-28T00:39:31Z</time>
      </trkpt>
      <trkpt lat="48.69992" lon="7.27072">
        <ele>349</ele>
        <time>2016-12-28T00:41:31Z</time>
      </trkpt>
      <trkpt lat="48.7" lon="7.27196">
        <ele>343</ele>
        <time>2016-12-28T00:43:31Z</time>
      </trkpt>
      <trkpt lat="48.70022" lon="7.27318">
        <ele>344</ele>
        <time>2016-12-28T00:45:31Z</time>
      </trkpt>
      <trkpt lat="48.70067" lon="7.27466">
        <ele>333</ele>
        <time>2016-12-28T00:47:31Z</time>
      </trkpt>
      <trkpt lat="48.70132" lon="7.27614">
        <ele>323</ele>
        <time>2016-12-28T00:49:31Z</time>
      </trkpt>
      <trkpt lat="48.702" lon="7.27756">
        <ele>312</ele>
        <time>2016-12-28T00:51:31Z</time>
      </trkpt>
      <trkpt lat="48.70259" lon="7.27909">
        <ele>299</ele>
        <time>2016-12-28T00:53:31Z</time>
      </trkpt>
      <trkpt lat="48.70314" lon="7.28042">
        <ele>296</ele>
        <time>2016-12-28T00:55:31Z</time>
      </trkpt>
      <trkpt lat="48.70358" lon="7.28185">
        <ele>284</ele>
        <time>2016-12-28T00:57:31Z</time>
      </trkpt>
      <trkpt lat="48.7038" lon="7.28277">
        <ele>282</ele>
        <time>2016-12-28T00:59:31Z</time>
      </trkpt>
      <trkpt lat="48.70371" lon="7.28292">
        <ele>283</ele>
        <time>2016-12-28T01:01:31Z</time>
      </trkpt>
      <trkpt lat="48.70396" lon="7.28408">
        <ele>279</ele>
        <time>2016-12-28T01:03:31Z</time>
      </trkpt>
      <trkpt lat="48.70436" lon="7.28547">
        <ele>284</ele>
        <time>2016-12-28T01:05:31Z</time>
      </trkpt>
      <trkpt lat="48.70476" lon="7.28689">
        <ele>284</ele>
        <time>2016-12-28T01:07:31Z</time>
      </trkpt>
      <trkpt lat="48.70502" lon="7.28841">
        <ele>272</ele>
        <time>2016-12-28T01:09:31Z</time>
      </trkpt>
      <trkpt lat="48.70499" lon="7.28961">
        <ele>272</ele>
        <time>2016-12-28T01:11:31Z</time>
      </trkpt>
      <trkpt lat="48.70498" lon="7.29054">
        <ele>270</ele>
        <time>2016-12-28T01:13:31Z</time>
      </trkpt>
      <trkpt lat="48.70535" lon="7.29164">
        <ele>270</ele>
        <time>2016-12-28T01:15:31Z</time>
      </trkpt>
      <trkpt lat="48.70593" lon="7.29305">
        <ele>275</ele>
        <time>2016-12-28T01:17:31Z</time>
      </trkpt>
      <trkpt lat="48.70584" lon="7.29391">
        <ele>277</ele>
        <time>2016-12-28T01:19:31Z</time>
      </trkpt>
      <trkpt lat="48.70558" lon="7.29487">
        <ele>286</ele>
        <time>2016-12-28T01:21:31Z</time>
      </trkpt>
      <trkpt lat="48.70555" lon="7.29591">
        <ele>295</ele>
        <time>2016-12-28T01:23:31Z</time>
      </trkpt>
      <trkpt lat="48.70584" lon="7.29678">
        <ele>300</ele>
        <time>2016-12-28T01:25:31Z</time>
      </trkpt>
      <trkpt lat="48.70622" lon="7.29733">
        <ele>304</ele>
        <time>2016-12-28T01:27:31Z</time>
      </trkpt>
      <trkpt lat="48.70676" lon="7.2979">
        <ele>303</ele>
        <time>2016-12-28T01:29:31Z</time>
      </trkpt>
      <trkpt lat="48.70728" lon="7.30004">
        <ele>317</ele>
        <time>2016-12-28T01:31:31Z</time>
      </trkpt>
      <trkpt lat="48.70772" lon="7.30163">
        <ele>322</ele>
        <time>2016-12-28T01:33:31Z</time>
      </trkpt>
      <trkpt lat="48.70756" lon="7.30156">
        <ele>327</ele>
        <time>2016-12-28T01:35:31Z</time>
      </trkpt>
      <trkpt lat="48.70697" lon="7.3004">
        <ele>330</ele>
        <time>2016-12-28T01:37:31Z</time>
      </trkpt>
      <trkpt lat="48.7062" lon="7.29928">
        <ele>339</ele>
        <time>2016-12-28T01:39:31Z</time>
      </trkpt>
      <trkpt lat="48.7053" lon="7.29827">
        <ele>352</ele>
        <time>2016-12-28T01:41:31Z</time>
      </trkpt>
      <trkpt lat="48.7047" lon="7.29729">
        <ele>350</ele>
        <time>2016-12-28T01:43:31Z</time>
      </trkpt>
      <trkpt lat="48.70412" lon="7.29636">
        <ele>351</ele>
        <time>2016-12-28T01:45:31Z</time>
      </trkpt>
      <trkpt lat="48.70336" lon="7.29587">
        <ele>350</ele>
        <time>2016-12-28T01:47:31Z</time>
      </trkpt>
      <trkpt lat="48.70265" lon="7.29593">
        <ele>360</ele>
        <time>2016-12-28T01:49:31Z</time>
      </trkpt>
      <trkpt lat="48.70174" lon="7.29584">
        <ele>366</ele>
        <time>2016-12-28T01:51:31Z</time>
      </trkpt>
      <trkpt lat="48.70083" lon="7.29571">
        <ele>367</ele>
        <time>2016-12-28T01:53:31Z</time>
      </trkpt>
      <trkpt lat="48.70015" lon="7.2962">
        <ele>369</ele>
        <time>2016-12-28T01:55:31Z</time>
      </trkpt>
      <trkpt lat="48.69956" lon="7.29715">
        <ele>372</ele>
        <time>2016-12-28T01:57:31Z</time>
      </trkpt>
      <trkpt lat="48.69885" lon="7.29899">
        <ele>392</ele>
        <time>2016-12-28T01:59:31Z</time>
      </trkpt>
      <trkpt lat="48.69867" lon="7.29921">
        <ele>394</ele>
        <time>2016-12-28T02:01:31Z</time>
      </trkpt>
      <trkpt lat="48.69817" lon="7.29911">
        <ele>390</ele>
        <time>2016-12-28T02:03:31Z</time>
      </trkpt>
      <trkpt lat="48.69759" lon="7.29823">
        <ele>391</ele>
        <time>2016-12-28T02:05:31Z</time>
      </trkpt>
      <trkpt lat="48.69762" lon="7.29738">
        <ele>385</ele>
        <time>2016-12-28T02:07:31Z</time>
      </trkpt>
      <trkpt lat="48.69728" lon="7.29638">
        <ele>389</ele>
        <time>2016-12-28T02:09:31Z</time>
      </trkpt>
      <trkpt lat="48.69672" lon="7.29555">
        <ele>395</ele>
        <time>2016-12-28T02:11:31Z</time>
      </trkpt>
      <trkpt lat="48.6958" lon="7.29477">
        <ele>394</ele>
        <time>2016-12-28T02:13:31Z</time>
      </trkpt>
      <trkpt lat="48.69494" lon="7.29459">
        <ele>401</ele>
        <time>2016-12-28T02:15:31Z</time>
      </trkpt>
      <trkpt lat="48.69419" lon="7.29513">
        <ele>405</ele>
        <time>2016-12-28T02:17:31Z</time>
      </trkpt>
      <trkpt lat="48.69368" lon="7.29655">
        <ele>411</ele>
        <time>2016-12-28T02:19:31Z</time>
      </trkpt>
      <trkpt lat="48.69326" lon="7.29753">
        <ele>420</ele>
        <time>2016-12-28T02:21:31Z</time>
      </trkpt>
      <trkpt lat="48.69276" lon="7.29805">
        <ele>434</ele>
        <time>2016-12-28T02:23:31Z</time>
      </trkpt>
      <trkpt lat="48.69239" lon="7.29806">
        <ele>436</ele>
        <time>2016-12-28T02:25:31Z</time>
      </trkpt>
      <trkpt lat="48.69189" lon="7.29753">
        <ele>435</ele>
        <time>2016-12-28T02:27:31Z</time>
      </trkpt>
      <trkpt lat="48.69129" lon="7.29678">
        <ele>436</ele>
        <time>2016-12-28T02:29:31Z</time>
      </trkpt>
      <trkpt lat="48.69055" lon="7.2961">
        <ele>430</ele>
        <time>2016-12-28T02:31:31Z</time>
      </trkpt>
      <trkpt lat="48.68963" lon="7.2956">
        <ele>423</ele>
        <time>2016-12-28T02:33:31Z</time>
      </trkpt>
      <trkpt lat="48.68891" lon="7.29567">
        <ele>424</ele>
        <time>2016-12-28T02:35:31Z</time>
      </trkpt>
      <trkpt lat="48.68832" lon="7.29634">
        <ele>430</ele>
        <time>2016-12-28T02:37:31Z</time>
      </trkpt>
      <trkpt lat="48.68769" lon="7.29703">
        <ele>433</ele>
        <time>2016-12-28T02:39:31Z</time>
      </trkpt>
      <trkpt lat="48.68707" lon="7.29751">
        <ele>438</ele>
        <time>2016-12-28T02:41:31Z</time>
      </trkpt>
      <trkpt lat="48.68693" lon="7.29768">
        <ele>442</ele>
        <time>2016-12-28T02:43:31Z</time>
      </trkpt>
      <trkpt lat="48.68674" lon="7.29782">
        <ele>445</ele>
        <time>2016-12-28T02:45:31Z</time>
      </trkpt>
      <trkpt lat="48.68619" lon="7.29772">
        <ele>450</ele>
        <time>2016-12-28T02:47:31Z</time>
      </trkpt>
      <trkpt lat="48.68558" lon="7.29734">
        <ele>460</ele>
        <time>2016-12-28T02:49:31Z</time>
      </trkpt>
      <trkpt lat="48.68503" lon="7.29649">
        <ele>475</ele>
        <time>2016-12-28T02:51:31Z</time>
      </trkpt>
      <trkpt lat="48.68437" lon="7.29586">
        <ele>481</ele>
        <time>2016-12-28T02:53:31Z</time>
      </trkpt>
      <trkpt lat="48.68392" lon="7.2959">
        <ele>484</ele>
        <time>2016-12-28T02:55:31Z</time>
      </trkpt>
      <trkpt lat="48.68342" lon="7.29581">
        <ele>481</ele>
        <time>2016-12-28T02:57:31Z</time>
      </trkpt>
      <trkpt lat="48.6828" lon="7.29598">
        <ele>481</ele>
        <time>2016-12-28T02:59:31Z</time>
      </trkpt>
      <trkpt lat="48.68201" lon="7.2959">
        <ele>474</ele>
        <time>2016-12-28T03:01:31Z</time>
      </trkpt>
      <trkpt lat="48.68147" lon="7.29596">
        <ele>470</ele>
        <time>2016-12-28T03:03:31Z</time>
      </trkpt>
      <trkpt lat="48.68065" lon="7.29653">
        <ele>469</ele>
        <time>2016-12-28T03:05:31Z</time>
      </trkpt>
      <trkpt lat="48.67967" lon="7.29743">
        <ele>476</ele>
        <time>2016-12-28T03:07:31Z</time>
      </trkpt>
      <trkpt lat="48.67875" lon="7.29769">
        <ele>474</ele>
        <time>2016-12-28T03:09:31Z</time>
      </trkpt>
      <trkpt lat="48.67855" lon="7.29778">
        <ele>473</ele>
        <time>2016-12-28T03:11:31Z</time>
      </trkpt>
      <trkpt lat="48.67805" lon="7.29813">
        <ele>474</ele>
        <time>2016-12-28T03:13:31Z</time>
      </trkpt>
      <trkpt lat="48.67797" lon="7.29864">
        <ele>478</ele>
        <time>2016-12-28T03:15:31Z</time>
      </trkpt>
      <trkpt lat="48.67828" lon="7.29947">
        <ele>478</ele>
        <time>2016-12-28T03:17:31Z</time>
      </trkpt>
      <trkpt lat="48.67826" lon="7.30014">
        <ele>485</ele>
        <time>2016-12-28T03:19:31Z</time>
      </trkpt>
      <trkpt lat="48.6782" lon="7.30078">
        <ele>493</ele>
        <time>2016-12-28T03:21:31Z</time>
      </trkpt>
      <trkpt lat="48.67828" lon="7.30149">
        <ele>501</ele>
        <time>2016-12-28T03:23:31Z</time>
      </trkpt>
      <trkpt lat="48.6788" lon="7.30245">
        <ele>501</ele>
        <time>2016-12-28T03:25:31Z</time>
      </trkpt>
      <trkpt lat="48.67942" lon="7.30361">
        <ele>504</ele>
        <time>2016-12-28T03:27:31Z</time>
      </trkpt>
      <trkpt lat="48.68002" lon="7.30497">
        <ele>499</ele>
        <time>2016-12-28T03:29:31Z</time>
      </trkpt>
      <trkpt lat="48.68038" lon="7.30602">
        <ele>496</ele>
        <time>2016-12-28T03:31:31Z</time>
      </trkpt>
      <trkpt lat="48.68067" lon="7.30719">
        <ele>495</ele>
        <time>2016-12-28T03:33:31Z</time>
      </trkpt>
      <trkpt lat="48.6806" lon="7.30838">
        <ele>494</ele>
        <time>2016-12-28T03:35:31Z</time>
      </trkpt>
      <trkpt lat="48.68036" lon="7.30908">
        <ele>494</ele>
        <time>2016-12-28T03:37:31Z</time>
      </trkpt>
      <trkpt lat="48.68029" lon="7.30994">
        <ele>492</ele>
        <time>2016-12-28T03:39:31Z</time>
      </trkpt>
      <trkpt lat="48.68062" lon="7.31072">
        <ele>487</ele>
        <time>2016-12-28T03:41:31Z</time>
      </trkpt>
      <trkpt lat="48.68106" lon="7.31117">
        <ele>482</ele>
        <time>2016-12-28T03:43:31Z</time>
      </trkpt>
      <trkpt lat="48.68133" lon="7.31157">
        <ele>479</ele>
        <time>2016-12-28T03:45:31Z</time>
      </trkpt>
      <trkpt lat="48.68155" lon="7.31172">
        <ele>476</ele>
        <time>2016-12-28T03:47:31Z</time>
      </trkpt>
      <trkpt lat="48.68182" lon="7.31216">
        <ele>475</ele>
        <time>2016-12-28T03:49:31Z</time>
      </trkpt>
      <trkpt lat="48.68222" lon="7.31309">
        <ele>475</ele>
        <time>2016-12-28T03:51:31Z</time>
      </trkpt>
      <trkpt lat="48.68292" lon="7.31376">
        <ele>478</ele>
        <time>2016-12-28T03:53:31Z</time>
      </trkpt>
      <trkpt lat="48.68369" lon="7.31445">
        <ele>477</ele>
        <time>2016-12-28T03:55:31Z</time>
      </trkpt>
      <trkpt lat="48.68458" lon="7.31518">
        <ele>470</ele>
        <time>2016-12-28T03:57:31Z</time>
      </trkpt>
      <trkpt lat="48.68492" lon="7.31516">
        <ele>469</ele>
        <time>2016-12-28T03:59:31Z</time>
      </trkpt>
      <trkpt lat="48.68618" lon="7.31579">
        <ele>463</ele>
        <time>2016-12-28T04:01:31Z</time>
      </trkpt>
      <trkpt lat="48.68633" lon="7.31631">
        <ele>460</ele>
        <time>2016-12-28T04:03:31Z</time>
      </trkpt>
      <trkpt lat="48.68665" lon="7.31695">
        <ele>459</ele>
        <time>2016-12-28T04:05:31Z</time>
      </trkpt>
      <trkpt lat="48.68691" lon="7.31774">
        <ele>458</ele>
        <time>2016-12-28T04:07:31Z</time>
      </trkpt>
      <trkpt lat="48.68737" lon="7.31871">
        <ele>458</ele>
        <time>2016-12-28T04:09:31Z</time>
      </trkpt>
      <trkpt lat="48.6879" lon="7.31967">
        <ele>453</ele>
        <time>2016-12-28T04:11:31Z</time>
      </trkpt>
      <trkpt lat="48.68856" lon="7.32071">
        <ele>446</ele>
        <time>2016-12-28T04:13:31Z</time>
      </trkpt>
      <trkpt lat="48.68929" lon="7.32173">
        <ele>441</ele>
        <time>2016-12-28T04:15:31Z</time>
      </trkpt>
      <trkpt lat="48.69019" lon="7.32261">
        <ele>436</ele>
        <time>2016-12-28T04:17:31Z</time>
      </trkpt>
      <trkpt lat="48.69124" lon="7.32364">
        <ele>427</ele>
        <time>2016-12-28T04:19:31Z</time>
      </trkpt>
      <trkpt lat="48.69222" lon="7.32483">
        <ele>421</ele>
        <time>2016-12-28T04:21:31Z</time>
      </trkpt>
      <trkpt lat="48.69295" lon="7.32578">
        <ele>411</ele>
        <time>2016-12-28T04:23:31Z</time>
      </trkpt>
      <trkpt lat="48.69353" lon="7.32618">
        <ele>405</ele>
        <time>2016-12-28T04:25:31Z</time>
      </trkpt>
      <trkpt lat="48.69433" lon="7.32632">
        <ele>401</ele>
        <time>2016-12-28T04:27:31Z</time>
      </trkpt>
      <trkpt lat="48.69465" lon="7.32612">
        <ele>401</ele>
        <time>2016-12-28T04:29:31Z</time>
      </trkpt>
      <trkpt lat="48.69536" lon="7.32653">
        <ele>394</ele>
        <time>2016-12-28T04:31:31Z</time>
      </trkpt>
      <trkpt lat="48.69637" lon="7.32645">
        <ele>389</ele>
        <time>2016-12-28T04:33:31Z</time>
      </trkpt>
      <trkpt lat="48.69668" lon="7.32675">
        <ele>388</ele>
        <time>2016-12-28T04:35:31Z</time>
      </trkpt>
      <trkpt lat="48.69684" lon="7.32745">
        <ele>389</ele>
        <time>2016-12-28T04:37:31Z</time>
      </trkpt>
      <trkpt lat="48.69738" lon="7.32807">
        <ele>400</ele>
        <time>2016-12-28T04:39:31Z</time>
      </trkpt>
      <trkpt lat="48.69789" lon="7.32891">
        <ele>407</ele>
        <time>2016-12-28T04:41:31Z</time>
      </trkpt>
      <trkpt lat="48.69844" lon="7.32961">
        <ele>408</ele>
        <time>2016-12-28T04:43:31Z</time>
      </trkpt>
      <trkpt lat="48.69907" lon="7.32984">
        <ele>414</ele>
        <time>2016-12-28T04:45:31Z</time>
      </trkpt>
      <trkpt lat="48.69975" lon="7.32984">
        <ele>414</ele>
        <time>2016-12-28T04:47:31Z</time>
      </trkpt>
      <trkpt lat="48.70042" lon="7.32947">
        <ele>424</ele>
        <time>2016-12-28T04:49:31Z</time>
      </trkpt>
      <trkpt lat="48.70129" lon="7.32918">
        <ele>432</ele>
        <time>2016-12-28T04:51:31Z</time>
      </trkpt>
      <trkpt lat="48.70237" lon="7.32903">
        <ele>437</ele>
        <time>2016-12-28T04:53:31Z</time>
      </trkpt>
      <trkpt lat="48.70346" lon="7.32888">
        <ele>448</ele>
        <time>2016-12-28T04:55:31Z</time>
      </trkpt>
      <trkpt lat="48.70471" lon="7.32923">
        <ele>452</ele>
        <time>2016-12-28T04:57:31Z</time>
      </trkpt>
      <trkpt lat="48.70589" lon="7.32954">
        <ele>456</ele>
        <time>2016-12-28T04:59:31Z</time>
      </trkpt>
      <trkpt lat="48.7067" lon="7.32976">
        <ele>460</ele>
        <time>2016-12-28T05:01:31Z</time>
      </trkpt>
      <trkpt lat="48.70774" lon="7.33099">
        <ele>449</ele>
        <time>2016-12-28T05:03:31Z</time>
      </trkpt>
      <trkpt lat="48.70863" lon="7.33168">
        <ele>445</ele>
        <time>2016-12-28T05:05:31Z</time>
      </trkpt>
      <trkpt lat="48.70964" lon="7.33218">
        <ele>434</ele>
        <time>2016-12-28T05:07:31Z</time>
      </trkpt>
      <trkpt lat="48.71089" lon="7.33213">
        <ele>431</ele>
        <time>2016-12-28T05:09:31Z</time>
      </trkpt>
      <trkpt lat="48.71158" lon="7.3317">
        <ele>432</ele>
        <time>2016-12-28T05:11:31Z</time>
      </trkpt>
      <trkpt lat="48.71218" lon="7.3315">
        <ele>434</ele>
        <time>2016-12-28T05:13:31Z</time>
      </trkpt>
      <trkpt lat="48.71252" lon="7.33124">
        <ele>432</ele>
        <time>2016-12-28T05:15:31Z</time>
      </trkpt>
      <trkpt lat="48.71287" lon="7.33143">
        <ele>435</ele>
        <time>2016-12-28T05:17:31Z</time>
      </trkpt>
      <trkpt lat="48.71361" lon="7.33135">
        <ele>438</ele>
        <time>2016-12-28T05:19:31Z</time>
      </trkpt>
      <trkpt lat="48.71498" lon="7.33123">
        <ele>444</ele>
        <time>2016-12-28T05:21:31Z</time>
      </trkpt>
      <trkpt lat="48.71592" lon="7.33167">
        <ele>445</ele>
        <time>2016-12-28T05:23:31Z</time>
      </trkpt>
      <trkpt lat="48.71663" lon="7.3324">
        <ele>442</ele>
        <time>2016-12-28T05:25:31Z</time>
      </trkpt>
      <trkpt lat="48.7173" lon="7.33258">
        <ele>442</ele>
        <time>2016-12-28T05:27:31Z</time>
      </trkpt>
      <trkpt lat="48.71794" lon="7.33326">
        <ele>439</ele>
        <time>2016-12-28T05:29:31Z</time>
      </trkpt>
      <trkpt lat="48.71888" lon="7.33387">
        <ele>440</ele>
        <time>2016-12-28T05:31:31Z</time>
      </trkpt>
      <trkpt lat="48.71962" lon="7.33434">
        <ele>435</ele>
        <time>2016-12-28T05:33:31Z</time>
      </trkpt>
      <trkpt lat="48.7198" lon="7.33426">
        <ele>436</ele>
        <time>2016-12-28T05:35:31Z</time>
      </trkpt>
      <trkpt lat="48.72023" lon="7.33454">
        <ele>430</ele>
        <time>2016-12-28T05:37:31Z</time>
      </trkpt>
      <trkpt lat="48.72046" lon="7.33497">
        <ele>427</ele>
        <time>2016-12-28T05:39:31Z</time>
      </trkpt>
      <trkpt lat="48.72135" lon="7.33541">
        <ele>425</ele>
        <time>2016-12-28T05:41:31Z</time>
      </trkpt>
      <trkpt lat="48.72163" lon="7.33588">
        <ele>427</ele>
        <time>2016-12-28T05:43:31Z</time>
      </trkpt>
      <trkpt lat="48.72236" lon="7.33616">
        <ele>430</ele>
        <time>2016-12-28T05:45:31Z</time>
      </trkpt>
      <trkpt lat="48.72265" lon="7.33645">
        <ele>431</ele>
        <time>2016-12-28T05:47:31Z</time>
      </trkpt>
      <trkpt lat="48.72333" lon="7.33684">
        <ele>431</ele>
        <time>2016-12-28T05:49:31Z</time>
      </trkpt>
      <trkpt lat="48.72357" lon="7.33736">
        <ele>429</ele>
        <time>2016-12-28T05:51:31Z</time>
      </trkpt>
      <trkpt lat="48.72435" lon="7.33831">
        <ele>426</ele>
        <time>2016-12-28T05:53:31Z</time>
      </trkpt>
      <trkpt lat="48.72508" lon="7.33914">
        <ele>424</ele>
        <time>2016-12-28T05:55:31Z</time>
      </trkpt>
      <trkpt lat="48.72582" lon="7.33999">
        <ele>418</ele>
        <time>2016-12-28T05:57:31Z</time>
      </trkpt>
      <trkpt lat="48.72663" lon="7.34097">
        <ele>407</ele>
        <time>2016-12-28T05:59:31Z</time>
      </trkpt>
      <trkpt lat="48.72654" lon="7.3404">
        <ele>410</ele>
        <time>2016-12-28T06:01:31Z</time>
      </trkpt>
      <trkpt lat="48.72661" lon="7.33987">
        <ele>411</ele>
        <time>2016-12-28T06:03:31Z</time>
      </trkpt>
      <trkpt lat="48.72694" lon="7.34059">
        <ele>402</ele>
        <time>2016-12-28T06:05:31Z</time>
      </trkpt>
      <trkpt lat="48.72731" lon="7.34144">
        <ele>392</ele>
        <time>2016-12-28T06:07:31Z</time>
      </trkpt>
      <trkpt lat="48.72789" lon="7.34295">
        <ele>374</ele>
        <time>2016-12-28T06:09:31Z</time>
      </trkpt>
      <trkpt lat="48.72789" lon="7.34336">
        <ele>370</ele>
        <time>2016-12-28T06:11:31Z</time>
      </trkpt>
      <trkpt lat="48.72834" lon="7.34385">
        <ele>361</ele>
        <time>2016-12-28T06:13:31Z</time>
      </trkpt>
      <trkpt lat="48.72894" lon="7.3441">
        <ele>354</ele>
        <time>2016-12-28T06:15:31Z</time>
      </trkpt>
      <trkpt lat="48.72956" lon="7.34459">
        <ele>343</ele>
        <time>2016-12-28T06:17:31Z</time>
      </trkpt>
      <trkpt lat="48.73014" lon="7.34465">
        <ele>338</ele>
        <time>2016-12-28T06:19:31Z</time>
      </trkpt>
      <trkpt lat="48.73112" lon="7.34606">
        <ele>316</ele>
        <time>2016-12-28T06:21:31Z</time>
      </trkpt>
      <trkpt lat="48.7319" lon="7.34646">
        <ele>305</ele>
        <time>2016-12-28T06:23:31Z</time>
      </trkpt>
      <trkpt lat="48.73298" lon="7.34737">
        <ele>284</ele>
        <time>2016-12-28T06:25:31Z</time>
      </trkpt>
      <trkpt lat="48.73338" lon="7.34789">
        <ele>279</ele>
        <time>2016-12-28T06:27:31Z</time>
      </trkpt>
      <trkpt lat="48.7335" lon="7.34819">
        <ele>278</ele>
        <time>2016-12-28T06:29:31Z</time>
      </trkpt>
      <trkpt lat="48.73274" lon="7.34955">
        <ele>267</ele>
        <time>2016-12-28T06:31:31Z</time>
      </trkpt>
      <trkpt lat="48.73221" lon="7.35131">
        <ele>249</ele>
        <time>2016-12-28T06:33:31Z</time>
      </trkpt>
      <trkpt lat="48.73363" lon="7.35255">
        <ele>247</ele>
        <time>2016-12-28T06:35:31Z</time>
      </trkpt>
      <trkpt lat="48.73419" lon="7.35467">
        <ele>246</ele>
        <time>2016-12-28T06:37:31Z</time>
      </trkpt>
      <trkpt lat="48.73498" lon="7.35704">
        <ele>245</ele>
        <time>2016-12-28T06:39:31Z</time>
      </trkpt>
      <trkpt lat="48.73576" lon="7.35839">
        <ele>241</ele>
        <time>2016-12-28T06:41:31Z</time>
      </trkpt>
      <trkpt lat="48.73657" lon="7.35848">
        <ele>234</ele>
        <time>2016-12-28T06:43:31Z</time>
      </trkpt>
      <trkpt lat="48.73744" lon="7.35767">
        <ele>230</ele>
        <time>2016-12-28T06:45:31Z</time>
      </trkpt>
      <trkpt lat="48.73776" lon="7.35811">
        <ele>226</ele>
        <time>2016-12-28T06:47:31Z</time>
      </trkpt>
      <trkpt lat="48.73786" lon="7.35877">
        <ele>223</ele>
        <time>2016-12-28T06:49:31Z</time>
      </trkpt>
      <trkpt lat="48.73815" lon="7.35945">
        <ele>220</ele>
        <time>2016-12-28T06:51:31Z</time>
      </trkpt>
      <trkpt lat="48.73914" lon="7.36052">
        <ele>216</ele>
        <time>2016-12-28T06:53:31Z</time>
      </trkpt>
      <trkpt lat="48.73899" lon="7.361">
        <ele>215</ele>
        <time>2016-12-28T06:55:31Z</time>
      </trkpt>
    </trkseg>
  </trk>
</gpx>